createdAt,value
2018-12-14T00:00:42.313Z,2.68
2018-12-14T00:03:10.434Z,2.74
2018-12-14T00:05:38.517Z,2.79
2018-12-14T00:08:06.581Z,2.80
2018-12-14T00:10:34.749Z,2.87
2018-12-14T00:13:02.874Z,2.89
2018-12-14T00:15:31.010Z,2.75
2018-12-14T00:17:59.112Z,2.73
2018-12-14T00:20:27.255Z,2.71
2018-12-14T00:22:55.338Z,2.70
2018-12-14T00:25:23.425Z,2.78
2018-12-14T00:27:51.485Z,2.82
2018-12-14T00:30:19.612Z,2.85
2018-12-14T00:32:47.824Z,2.83
2018-12-14T00:35:16.420Z,2.80
2018-12-14T00:37:51.156Z,2.76
2018-12-14T00:40:19.216Z,2.75
2018-12-14T00:42:47.277Z,2.78
2018-12-14T00:45:15.428Z,2.92
2018-12-14T00:47:43.654Z,2.89
2018-12-14T00:50:11.841Z,2.90
2018-12-14T00:52:39.989Z,2.86
2018-12-14T00:55:08.216Z,2.89
2018-12-14T00:57:36.305Z,2.87
2018-12-14T01:00:04.989Z,2.66
2018-12-14T01:02:33.050Z,2.80
2018-12-14T01:05:01.131Z,2.74
2018-12-14T01:07:29.302Z,2.78
2018-12-14T01:09:57.461Z,2.75
2018-12-14T01:12:25.534Z,2.83
2018-12-14T01:14:53.693Z,2.78
2018-12-14T01:17:21.772Z,2.73
2018-12-14T01:19:50.012Z,2.67
2018-12-14T01:22:24.800Z,2.68
2018-12-14T01:24:52.998Z,2.73
2018-12-14T01:32:30.034Z,2.79
2018-12-14T01:34:58.127Z,2.71
2018-12-14T01:37:26.253Z,2.63
2018-12-14T01:39:54.333Z,2.67
2018-12-14T01:42:22.458Z,2.70
2018-12-14T01:44:50.553Z,2.65
2018-12-14T01:47:18.692Z,2.65
2018-12-14T01:49:46.876Z,2.67
2018-12-14T01:52:14.965Z,2.65
2018-12-14T01:54:43.182Z,2.74
2018-12-14T01:57:11.328Z,2.74
2018-12-14T01:59:39.472Z,2.71
2018-12-14T02:02:07.629Z,2.71
2018-12-14T02:04:35.685Z,2.67
2018-12-14T02:07:03.761Z,2.63
2018-12-14T02:09:31.872Z,2.76
2018-12-14T02:11:59.965Z,2.60
2018-12-14T02:14:28.037Z,2.60
2018-12-14T02:16:56.120Z,2.56
2018-12-14T02:19:24.199Z,2.53
2018-12-14T02:21:52.266Z,2.55
2018-12-14T02:24:20.337Z,2.53
2018-12-14T02:26:48.394Z,2.50
2018-12-14T02:29:16.458Z,2.52
2018-12-14T02:31:44.626Z,2.49
2018-12-14T02:34:12.761Z,2.51
2018-12-14T02:36:40.839Z,2.39
2018-12-14T02:39:09.061Z,2.48
2018-12-14T02:41:37.140Z,2.51
2018-12-14T02:44:05.377Z,2.55
2018-12-14T02:46:33.443Z,2.53
2018-12-14T02:49:01.681Z,2.55
2018-12-14T02:51:29.813Z,2.53
2018-12-14T02:53:57.899Z,2.52
2018-12-14T02:56:25.972Z,2.47
2018-12-14T02:58:54.041Z,2.44
2018-12-14T03:01:22.123Z,2.53
2018-12-14T03:03:50.172Z,2.50
2018-12-14T03:06:18.262Z,2.48
2018-12-14T03:08:46.323Z,2.39
2018-12-14T03:11:14.480Z,2.51
2018-12-14T03:13:42.538Z,2.55
2018-12-14T03:16:10.619Z,2.40
2018-12-14T03:18:38.821Z,2.48
2018-12-14T03:21:06.956Z,2.43
2018-12-14T03:23:35.120Z,2.48
2018-12-14T03:26:03.286Z,2.48
2018-12-14T03:28:31.452Z,2.53
2018-12-14T03:30:59.603Z,2.55
2018-12-14T03:33:27.788Z,2.50
2018-12-14T03:35:55.880Z,2.48
2018-12-14T03:38:23.962Z,2.43
2018-12-14T03:40:52.517Z,2.51
2018-12-14T03:43:20.603Z,2.48
2018-12-14T03:45:48.685Z,2.40
2018-12-14T03:48:16.751Z,2.37
2018-12-14T03:50:44.901Z,2.43
2018-12-14T03:53:13.061Z,2.39
2018-12-14T03:55:41.190Z,2.43
2018-12-14T03:58:09.420Z,2.43
2018-12-14T04:00:37.605Z,2.44
2018-12-14T04:03:05.864Z,2.38
2018-12-14T04:05:34.123Z,2.31
2018-12-14T04:08:02.194Z,2.45
2018-12-14T04:10:30.498Z,2.38
2018-12-14T04:12:58.641Z,2.34
2018-12-14T04:15:26.901Z,2.38
2018-12-14T04:17:55.069Z,2.39
2018-12-14T04:20:23.225Z,2.42
2018-12-14T04:22:51.285Z,2.44
2018-12-14T04:25:19.553Z,2.41
2018-12-14T04:27:47.681Z,2.38
2018-12-14T04:30:15.762Z,2.35
2018-12-14T04:32:43.837Z,2.26
2018-12-14T04:35:12.022Z,2.31
2018-12-14T04:37:40.074Z,2.39
2018-12-14T04:40:08.504Z,2.41
2018-12-14T04:42:36.902Z,2.42
2018-12-14T04:45:05.563Z,2.43
2018-12-14T04:47:33.713Z,2.48
2018-12-14T04:50:01.762Z,2.53
2018-12-14T04:52:29.837Z,2.48
2018-12-14T04:54:57.909Z,2.53
2018-12-14T04:57:26.086Z,2.46
2018-12-14T04:59:54.306Z,2.43
2018-12-14T05:02:22.530Z,2.43
2018-12-14T05:04:51.802Z,2.51
2018-12-14T05:07:19.966Z,2.47
2018-12-14T05:09:48.049Z,2.56
2018-12-14T05:12:16.256Z,2.52
2018-12-14T05:14:44.728Z,2.58
2018-12-14T05:17:12.840Z,2.57
2018-12-14T05:19:40.941Z,2.59
2018-12-14T05:22:09.068Z,2.59
2018-12-14T05:24:37.179Z,2.62
2018-12-14T05:27:05.421Z,2.58
2018-12-14T05:29:34.389Z,2.49
2018-12-14T05:32:02.476Z,2.49
2018-12-14T05:34:30.638Z,2.53
2018-12-14T05:36:58.750Z,2.53
2018-12-14T05:39:26.846Z,2.55
2018-12-14T05:41:54.933Z,2.53
2018-12-14T05:44:23.128Z,2.56
2018-12-14T05:46:51.195Z,2.55
2018-12-14T05:49:19.282Z,2.59
2018-12-14T05:51:47.400Z,2.55
2018-12-14T05:54:15.626Z,2.51
2018-12-14T05:56:43.849Z,2.56
2018-12-14T05:59:11.960Z,2.47
2018-12-14T06:01:40.109Z,2.49
2018-12-14T06:04:08.196Z,2.58
2018-12-14T06:06:36.349Z,2.59
2018-12-14T06:09:05.679Z,2.55
2018-12-14T06:11:33.830Z,2.51
2018-12-14T06:14:08.473Z,2.65
2018-12-14T06:16:36.784Z,2.55
2018-12-14T06:19:04.950Z,2.55
2018-12-14T06:21:33.056Z,2.68
2018-12-14T06:24:01.141Z,2.54
2018-12-14T06:26:29.312Z,2.59
2018-12-14T06:28:57.438Z,2.57
2018-12-14T06:31:25.604Z,2.51
2018-12-14T06:33:53.757Z,2.45
2018-12-14T06:36:21.846Z,2.46
2018-12-14T06:38:50.029Z,2.50
2018-12-14T06:41:18.096Z,2.50
2018-12-14T06:43:46.163Z,2.53
2018-12-14T06:46:14.330Z,2.41
2018-12-14T06:48:42.489Z,2.48
2018-12-14T06:51:10.970Z,2.61
2018-12-14T06:53:39.155Z,2.60
2018-12-14T06:56:07.321Z,2.58
2018-12-14T06:58:35.406Z,2.58
2018-12-14T07:01:03.509Z,2.61
2018-12-14T07:03:31.626Z,2.60
2018-12-14T07:05:59.694Z,2.57
2018-12-14T07:08:27.762Z,2.55
2018-12-14T07:10:55.817Z,2.50
2018-12-14T07:13:23.909Z,2.50
2018-12-14T07:15:52.073Z,2.37
2018-12-14T07:18:20.325Z,2.44
2018-12-14T07:20:48.481Z,2.43
2018-12-14T07:23:16.553Z,2.47
2018-12-14T07:25:44.656Z,2.52
2018-12-14T07:28:12.742Z,2.57
2018-12-14T07:30:40.833Z,2.42
2018-12-14T07:33:08.901Z,2.53
2018-12-14T07:35:41.904Z,2.48
2018-12-14T07:38:07.048Z,2.45
2018-12-14T07:40:35.233Z,2.57
2018-12-14T07:43:03.381Z,2.55
2018-12-14T07:45:31.544Z,2.61
2018-12-14T07:47:59.637Z,2.59
2018-12-14T07:50:27.701Z,2.55
2018-12-14T07:52:58.493Z,2.42
2018-12-14T07:55:26.766Z,2.47
2018-12-14T07:57:54.935Z,2.52
2018-12-14T08:00:24.426Z,2.45
2018-12-14T08:02:52.610Z,2.51
2018-12-14T08:05:20.654Z,2.46
2018-12-14T08:07:48.722Z,2.47
2018-12-14T08:10:16.796Z,2.51
2018-12-14T08:12:44.872Z,2.58
2018-12-14T08:15:13.295Z,2.62
2018-12-14T08:17:41.453Z,2.53
2018-12-14T08:20:09.601Z,2.57
2018-12-14T08:22:37.677Z,2.63
2018-12-14T08:25:06.350Z,2.61
2018-12-14T08:27:34.434Z,2.60
2018-12-14T08:30:02.566Z,2.55
2018-12-14T08:32:30.709Z,2.53
2018-12-14T08:34:58.778Z,2.57
2018-12-14T08:37:26.929Z,2.60
2018-12-14T08:39:55.178Z,2.56
2018-12-14T08:42:23.357Z,2.49
2018-12-14T08:44:51.534Z,2.64
2018-12-14T08:47:19.714Z,2.48
2018-12-14T08:49:47.894Z,2.50
2018-12-14T08:52:16.085Z,2.56
2018-12-14T08:54:44.221Z,2.64
2018-12-14T08:57:12.322Z,2.48
2018-12-14T08:59:40.658Z,2.58
2018-12-14T09:02:08.818Z,2.58
2018-12-14T09:04:36.899Z,2.64
2018-12-14T09:07:05.141Z,2.56
2018-12-14T09:09:33.221Z,2.60
2018-12-14T09:12:01.480Z,2.60
2018-12-14T09:14:29.649Z,2.65
2018-12-14T09:16:57.706Z,2.58
2018-12-14T09:19:32.554Z,2.64
2018-12-14T09:22:00.720Z,2.60
2018-12-14T09:24:28.875Z,2.65
2018-12-14T09:26:56.984Z,2.77
2018-12-14T09:29:25.043Z,2.82
2018-12-14T09:31:53.254Z,2.82
2018-12-14T09:34:21.435Z,2.85
2018-12-14T09:36:49.687Z,2.83
2018-12-14T09:39:17.898Z,2.95
2018-12-14T09:41:45.957Z,2.84
2018-12-14T09:44:14.042Z,2.78
2018-12-14T09:46:42.099Z,2.75
2018-12-14T09:49:10.171Z,2.84
2018-12-14T09:51:38.247Z,2.90
2018-12-14T09:54:06.398Z,2.83
2018-12-14T09:56:34.588Z,2.71
2018-12-14T09:59:02.661Z,2.75
2018-12-14T10:01:30.749Z,2.63
2018-12-14T10:03:59.108Z,2.77
2018-12-14T10:06:27.279Z,2.80
2018-12-14T10:08:55.905Z,2.88
2018-12-14T10:11:24.081Z,2.79
2018-12-14T10:13:52.320Z,2.81
2018-12-14T10:16:20.504Z,2.81
2018-12-14T10:18:49.237Z,2.92
2018-12-14T10:21:18.007Z,2.73
2018-12-14T10:23:46.202Z,2.79
2018-12-14T10:26:14.377Z,2.81
2018-12-14T10:28:42.658Z,2.87
2018-12-14T10:31:10.850Z,2.71
2018-12-14T10:33:39.086Z,2.93
2018-12-14T10:36:07.353Z,2.90
2018-12-14T10:38:35.555Z,3.03
2018-12-14T10:41:03.738Z,3.07
2018-12-14T10:43:31.917Z,3.04
2018-12-14T10:46:00.116Z,2.91
2018-12-14T10:48:28.301Z,2.97
2018-12-14T10:50:56.628Z,2.77
2018-12-14T10:53:24.794Z,2.73
2018-12-14T10:55:53.062Z,2.82
2018-12-14T10:58:21.786Z,2.86
2018-12-14T11:00:55.349Z,2.83
2018-12-14T11:03:23.581Z,2.81
2018-12-14T11:05:51.758Z,2.89
2018-12-14T11:08:19.959Z,2.78
2018-12-14T11:10:48.171Z,2.78
2018-12-14T11:13:16.468Z,2.90
2018-12-14T11:15:44.678Z,2.91
2018-12-14T11:18:12.862Z,2.96
2018-12-14T11:20:41.158Z,2.95
2018-12-14T11:23:09.364Z,3.00
2018-12-14T11:25:37.666Z,3.05
2018-12-14T11:28:05.845Z,2.91
2018-12-14T11:30:34.049Z,2.80
2018-12-14T11:33:02.275Z,2.74
2018-12-14T11:35:30.512Z,2.93
2018-12-14T11:37:58.714Z,3.02
2018-12-14T11:40:26.978Z,3.07
2018-12-14T11:42:55.183Z,3.03
2018-12-14T11:45:23.395Z,2.84
2018-12-14T11:47:51.586Z,2.80
2018-12-14T11:50:19.908Z,2.66
2018-12-14T11:52:48.084Z,2.87
2018-12-14T11:55:16.260Z,2.73
2018-12-14T11:57:44.518Z,2.75
2018-12-14T12:00:14.246Z,2.82
2018-12-14T12:02:43.245Z,2.92
2018-12-14T12:05:12.052Z,3.07
2018-12-14T12:07:41.452Z,3.15
2018-12-14T12:10:10.829Z,3.10
2018-12-14T12:12:39.326Z,3.00
2018-12-14T12:15:07.730Z,2.93
2018-12-14T12:17:37.612Z,3.08
2018-12-14T12:20:06.251Z,3.05
2018-12-14T12:22:34.484Z,3.19
2018-12-14T12:25:02.698Z,3.00
2018-12-14T12:27:31.058Z,2.94
2018-12-14T12:29:59.237Z,2.93
2018-12-14T12:32:27.419Z,2.85
2018-12-14T12:34:55.763Z,2.72
2018-12-14T12:37:23.956Z,2.83
2018-12-14T12:39:52.212Z,2.85
2018-12-14T12:42:20.409Z,2.97
2018-12-14T12:44:48.745Z,2.77
2018-12-14T12:47:17.237Z,2.81
2018-12-14T12:49:45.418Z,2.94
2018-12-14T12:52:13.597Z,2.85
2018-12-14T12:54:41.797Z,2.90
2018-12-14T12:57:10.004Z,2.93
2018-12-14T12:59:38.335Z,2.95
2018-12-14T13:02:06.614Z,2.80
2018-12-14T13:21:15.774Z,2.63
2018-12-14T13:26:27.864Z,2.65
2018-12-14T13:28:56.070Z,2.59
2018-12-14T13:31:24.173Z,2.71
2018-12-14T13:33:52.340Z,2.78
2018-12-14T13:36:20.476Z,2.68
2018-12-14T13:38:48.704Z,2.75
2018-12-14T13:41:17.508Z,2.82
2018-12-14T13:43:45.697Z,2.74
2018-12-14T13:46:13.918Z,2.84
2018-12-14T13:48:42.074Z,2.80
2018-12-14T13:51:10.250Z,2.69
2018-12-14T13:53:38.317Z,2.77
2018-12-14T13:56:06.406Z,2.70
2018-12-14T13:58:34.518Z,2.52
2018-12-14T14:01:02.592Z,2.68
2018-12-14T14:03:30.696Z,2.83
2018-12-14T14:05:58.779Z,2.82
2018-12-14T14:08:26.909Z,2.71
2018-12-14T14:10:55.015Z,2.81
2018-12-14T14:13:23.161Z,2.83
2018-12-14T14:15:51.330Z,2.78
2018-12-14T14:18:20.796Z,2.63
2018-12-14T14:20:53.041Z,2.65
2018-12-14T14:23:25.693Z,2.80
2018-12-14T14:25:58.929Z,2.81
2018-12-14T14:28:33.211Z,2.66
2018-12-14T14:31:23.496Z,2.78
2018-12-14T14:34:00.385Z,2.83
2018-12-14T14:36:40.356Z,2.90
2018-12-14T14:39:29.480Z,2.83
2018-12-14T14:42:03.238Z,2.78
2018-12-14T14:44:46.741Z,2.74
2018-12-14T14:47:30.011Z,2.74
2018-12-14T14:50:10.725Z,2.72
2018-12-14T14:53:00.607Z,2.67
2018-12-14T14:55:43.530Z,2.73
2018-12-14T14:58:24.130Z,2.63
2018-12-14T15:00:57.362Z,2.65
2018-12-14T15:03:45.408Z,2.72
2018-12-14T15:06:22.105Z,2.55
2018-12-14T15:09:04.277Z,2.68
2018-12-14T15:11:44.298Z,2.33
2018-12-14T15:28:47.661Z,2.50
2018-12-14T15:31:49.562Z,2.53
2018-12-14T15:34:31.833Z,2.58
2018-12-14T15:37:04.091Z,2.63
2018-12-14T15:39:39.064Z,2.60
2018-12-14T15:42:07.326Z,2.61
2018-12-14T15:44:35.556Z,2.58
2018-12-14T15:47:10.939Z,2.59
2018-12-14T15:49:39.162Z,2.56
2018-12-14T15:52:07.397Z,2.60
2018-12-14T15:54:35.627Z,2.51
2018-12-14T15:57:03.873Z,2.52
2018-12-14T15:59:32.190Z,2.56
2018-12-14T16:02:00.443Z,2.48
2018-12-14T16:04:28.675Z,2.49
2018-12-14T16:06:56.965Z,2.44
2018-12-14T16:09:25.208Z,2.46
2018-12-14T16:11:53.312Z,2.49
2018-12-14T16:14:21.514Z,2.45
2018-12-14T16:16:49.702Z,2.46
2018-12-14T16:19:17.866Z,2.48
2018-12-14T16:21:46.017Z,2.52
2018-12-14T16:24:14.083Z,2.55
2018-12-14T16:26:42.241Z,2.45
2018-12-14T16:29:10.458Z,2.49
2018-12-14T16:31:38.558Z,2.46
2018-12-14T16:34:06.767Z,2.40
2018-12-14T16:36:34.917Z,2.41
2018-12-14T16:39:03.150Z,2.44
2018-12-14T16:41:31.307Z,2.51
2018-12-14T16:43:59.465Z,2.46
2018-12-14T16:46:27.572Z,2.45
2018-12-14T16:48:55.657Z,2.40
2018-12-14T16:51:23.815Z,2.41
2018-12-14T16:54:01.183Z,2.37
2018-12-14T16:56:34.152Z,2.47
2018-12-14T16:59:20.669Z,2.46
2018-12-14T17:01:54.192Z,2.29
2018-12-14T17:07:04.486Z,2.29
2018-12-14T17:09:39.402Z,2.34
2018-12-14T17:12:10.081Z,2.27
2018-12-14T17:14:45.812Z,2.24
2018-12-14T17:17:16.569Z,2.27
2018-12-14T17:19:47.364Z,2.23
2018-12-14T17:22:17.325Z,2.22
2018-12-14T17:24:48.143Z,2.18
2018-12-14T17:27:18.515Z,2.29
2018-12-14T17:29:48.134Z,2.27
2018-12-14T17:32:22.739Z,2.33
2018-12-14T17:34:58.108Z,2.34
2018-12-14T17:37:28.427Z,2.30
2018-12-14T17:40:11.000Z,2.24
2018-12-14T17:42:46.129Z,2.10
2018-12-14T17:45:25.241Z,2.24
2018-12-14T17:47:56.362Z,2.26
2018-12-14T17:50:34.986Z,2.24
2018-12-14T17:53:09.348Z,2.26
2018-12-14T17:55:55.842Z,2.22
2018-12-14T17:58:28.783Z,2.23
2018-12-14T18:00:58.573Z,2.10
2018-12-14T18:03:34.313Z,2.15
2018-12-14T18:06:02.930Z,2.19
2018-12-14T18:08:34.139Z,2.27
2018-12-14T18:11:06.702Z,2.24
2018-12-14T18:13:46.404Z,2.25
2018-12-14T18:16:22.774Z,2.27
2018-12-14T18:19:05.401Z,2.24
2018-12-14T18:21:38.581Z,2.27
2018-12-14T18:41:09.321Z,2.09
2018-12-14T18:43:48.706Z,2.05
2018-12-14T18:46:28.492Z,2.10
2018-12-14T18:49:14.601Z,2.25
2018-12-14T18:51:56.021Z,2.27
2018-12-14T18:54:34.358Z,2.30
2018-12-14T18:57:06.661Z,2.38
2018-12-14T18:59:42.739Z,2.33
2018-12-14T19:02:13.301Z,2.34
2018-12-14T19:04:47.926Z,2.34
2018-12-14T19:07:22.497Z,2.40
2018-12-14T19:09:54.566Z,2.50
2018-12-14T19:12:33.545Z,2.48
2018-12-14T19:15:08.340Z,2.44
2018-12-14T19:17:40.994Z,2.30
2018-12-14T19:20:17.126Z,2.37
2018-12-14T19:22:55.989Z,2.50
2018-12-14T19:25:40.130Z,2.53
2018-12-14T19:28:18.234Z,2.53
2018-12-14T19:30:54.658Z,2.46
2018-12-14T19:33:39.896Z,2.56
2018-12-14T19:36:11.861Z,2.65
2018-12-14T19:38:48.223Z,2.65
2018-12-14T19:41:21.514Z,2.56
2018-12-14T19:44:00.143Z,2.47
2018-12-14T19:46:39.699Z,2.45
2018-12-14T19:49:15.367Z,2.39
2018-12-14T20:05:42.706Z,2.44
2018-12-14T20:10:59.731Z,2.59
2018-12-14T20:13:41.261Z,2.53
2018-12-14T20:16:19.888Z,2.49
2018-12-14T20:18:53.003Z,2.46
2018-12-14T20:21:25.829Z,2.37
2018-12-14T20:24:04.517Z,2.45
2018-12-14T20:26:43.488Z,2.58
2018-12-14T20:44:15.753Z,2.34
2018-12-14T21:00:29.030Z,2.53
2018-12-14T21:09:30.497Z,2.51
2018-12-14T21:12:24.040Z,2.52
2018-12-14T21:14:57.179Z,2.58
2018-12-14T21:17:39.956Z,2.48
2018-12-14T21:20:15.742Z,2.48
2018-12-14T21:22:51.764Z,2.48
2018-12-14T21:25:31.052Z,2.47
2018-12-14T21:31:09.450Z,2.56
2018-12-14T21:34:13.563Z,2.62
2018-12-14T21:36:47.144Z,2.50
2018-12-14T21:39:21.825Z,2.49
2018-12-14T21:41:57.092Z,2.49
2018-12-14T21:44:37.808Z,2.47
2018-12-14T22:07:06.903Z,2.44
2018-12-14T22:09:36.794Z,2.51
2018-12-14T22:12:11.467Z,2.52
2018-12-14T22:14:49.503Z,2.48
2018-12-14T22:17:42.109Z,2.54
2018-12-14T22:20:18.362Z,2.47
2018-12-14T22:22:55.310Z,2.41
2018-12-14T22:25:36.194Z,2.38
2018-12-14T22:31:17.703Z,2.37
2018-12-14T22:33:57.903Z,2.46
2018-12-14T22:36:42.449Z,2.55
2018-12-14T22:39:19.340Z,2.58
2018-12-14T22:41:54.132Z,2.60
2018-12-14T22:44:26.443Z,2.61
2018-12-14T22:47:01.645Z,2.55
2018-12-14T22:49:35.287Z,2.60
2018-12-14T22:52:06.076Z,2.65
2018-12-14T22:54:52.366Z,2.58
2018-12-14T22:57:30.993Z,2.66
2018-12-14T23:00:12.327Z,2.53
2018-12-14T23:02:49.647Z,2.54
2018-12-14T23:05:23.633Z,2.59
2018-12-14T23:07:58.084Z,2.48
2018-12-14T23:10:32.302Z,2.45
2018-12-14T23:13:06.754Z,2.50
2018-12-14T23:15:43.849Z,2.44
2018-12-14T23:18:16.582Z,2.42
2018-12-14T23:20:47.652Z,2.36
2018-12-14T23:23:16.198Z,2.53
2018-12-14T23:25:46.707Z,2.53
2018-12-14T23:28:22.084Z,2.42
2018-12-14T23:30:54.267Z,2.44
2018-12-14T23:33:23.561Z,2.43
2018-12-14T23:35:54.703Z,2.51
2018-12-14T23:38:25.269Z,2.49
2018-12-14T23:40:55.001Z,2.53
2018-12-14T23:43:25.038Z,2.57
2018-12-14T23:45:55.088Z,2.53
2018-12-14T23:48:34.456Z,2.41
2018-12-14T23:51:04.062Z,2.36
2018-12-14T23:53:33.174Z,2.50
2018-12-14T23:56:11.373Z,2.45
2018-12-14T23:58:44.187Z,2.31
